createdAt,value
2023-05-12T00:00:19.313Z,11.25
2023-05-12T00:02:46.528Z,11.00
2023-05-12T00:05:13.617Z,7.03
2023-05-12T00:07:40.674Z,9.20
2023-05-12T00:10:08.134Z,6.43
2023-05-12T00:12:35.199Z,5.80
2023-05-12T00:15:02.246Z,11.23
2023-05-12T00:17:29.261Z,5.37
2023-05-12T00:19:56.309Z,6.85
2023-05-12T00:22:23.293Z,6.73
2023-05-12T00:24:50.278Z,7.13
2023-05-12T00:27:17.259Z,7.30
2023-05-12T00:29:44.678Z,8.52
2023-05-12T00:32:11.719Z,6.10
2023-05-12T00:34:38.711Z,5.05
2023-05-12T00:37:06.468Z,8.40
2023-05-12T00:39:33.454Z,4.82
2023-05-12T00:42:00.542Z,8.50
2023-05-12T00:44:27.538Z,9.93
2023-05-12T00:46:55.356Z,7.72
2023-05-12T00:49:22.533Z,4.63
2023-05-12T00:51:50.062Z,6.65
2023-05-12T00:54:17.515Z,7.72
2023-05-12T00:56:44.597Z,8.83
2023-05-12T00:59:11.727Z,5.97
2023-05-12T01:01:38.867Z,7.88
2023-05-12T01:04:06.438Z,4.53
2023-05-12T01:06:54.315Z,4.93
2023-05-12T01:09:21.524Z,13.97
2023-05-12T01:11:48.553Z,6.22
2023-05-12T01:14:15.797Z,8.30
2023-05-12T01:16:53.640Z,7.80
2023-05-12T01:19:54.019Z,5.37
2023-05-12T01:22:21.351Z,6.73
2023-05-12T01:24:54.690Z,9.40
2023-05-12T01:27:25.909Z,5.28
2023-05-12T01:29:54.808Z,4.18
2023-05-12T01:32:22.325Z,7.30
2023-05-12T01:34:50.381Z,9.87
2023-05-12T01:37:17.496Z,5.80
2023-05-12T01:39:44.825Z,6.80
2023-05-12T01:42:12.061Z,7.23
2023-05-12T01:44:39.067Z,6.03
2023-05-12T01:47:09.878Z,6.53
2023-05-12T01:49:37.804Z,6.13
2023-05-12T01:52:05.453Z,6.32
2023-05-12T01:54:32.486Z,7.35
2023-05-12T01:56:59.473Z,4.67
2023-05-12T01:59:27.440Z,11.63
2023-05-12T02:01:54.769Z,8.20
2023-05-12T02:04:21.800Z,4.93
2023-05-12T02:06:48.965Z,7.53
2023-05-12T02:09:16.059Z,5.57
2023-05-12T02:11:43.064Z,4.60
2023-05-12T02:14:10.124Z,5.07
2023-05-12T02:16:37.183Z,8.97
2023-05-12T02:19:04.380Z,4.83
2023-05-12T02:21:31.486Z,5.10
2023-05-12T02:23:58.551Z,6.03
2023-05-12T02:26:25.625Z,4.13
2023-05-12T02:28:52.628Z,7.53
2023-05-12T02:31:19.677Z,5.87
2023-05-12T02:33:46.715Z,6.17
2023-05-12T02:36:13.814Z,5.57
2023-05-12T02:38:41.285Z,14.37
2023-05-12T02:41:08.379Z,4.17
2023-05-12T02:43:35.498Z,4.77
2023-05-12T02:46:02.780Z,5.67
2023-05-12T02:48:29.820Z,7.47
2023-05-12T02:50:57.380Z,5.60
2023-05-12T02:53:24.513Z,7.07
2023-05-12T02:55:51.651Z,7.27
2023-05-12T02:58:18.709Z,6.13
2023-05-12T03:00:46.127Z,11.17
2023-05-12T03:03:14.532Z,4.60
2023-05-12T03:05:41.660Z,5.77
2023-05-12T03:08:08.665Z,5.23
2023-05-12T03:10:36.036Z,5.23
2023-05-12T03:13:03.186Z,9.97
2023-05-12T03:15:30.238Z,5.67
2023-05-12T03:17:57.241Z,5.13
2023-05-12T03:20:24.383Z,9.63
2023-05-12T03:22:51.453Z,6.10
2023-05-12T03:25:18.473Z,8.73
2023-05-12T03:27:45.614Z,10.07
2023-05-12T03:30:13.387Z,4.50
2023-05-12T03:32:40.616Z,6.77
2023-05-12T03:35:08.284Z,12.00
2023-05-12T03:37:35.361Z,7.37
2023-05-12T03:40:02.367Z,5.20
2023-05-12T03:42:29.324Z,8.73
2023-05-12T03:44:56.316Z,5.75
2023-05-12T03:47:23.504Z,6.78
2023-05-12T03:49:50.672Z,7.20
2023-05-12T03:52:17.769Z,8.85
2023-05-12T03:54:44.785Z,5.70
2023-05-12T03:57:12.998Z,15.63
2023-05-12T03:59:40.052Z,6.43
2023-05-12T04:02:11.736Z,9.15
2023-05-12T04:04:38.815Z,12.23
2023-05-12T04:07:05.959Z,8.05
2023-05-12T04:09:33.319Z,8.95
2023-05-12T04:12:00.318Z,14.38
2023-05-12T04:14:39.100Z,7.85
2023-05-12T04:17:09.617Z,6.78
2023-05-12T04:19:36.711Z,10.30
2023-05-12T04:22:03.786Z,4.65
2023-05-12T04:24:31.345Z,4.90
2023-05-12T04:26:58.497Z,7.13
2023-05-12T04:29:25.507Z,6.93
2023-05-12T04:31:54.834Z,11.57
2023-05-12T04:34:21.885Z,5.22
2023-05-12T04:36:48.934Z,8.57
2023-05-12T04:39:16.056Z,8.20
2023-05-12T04:41:43.064Z,7.35
2023-05-12T04:44:10.077Z,4.78
2023-05-12T04:46:37.107Z,7.90
2023-05-12T04:49:04.636Z,7.57
2023-05-12T04:51:32.252Z,8.65
2023-05-12T04:53:59.218Z,5.85
2023-05-12T04:56:26.207Z,5.22
2023-05-12T04:58:53.222Z,6.57
2023-05-12T05:01:20.401Z,5.72
2023-05-12T05:03:47.565Z,10.75
2023-05-12T05:06:14.726Z,5.88
2023-05-12T05:08:41.825Z,4.20
2023-05-12T05:11:08.871Z,8.07
2023-05-12T05:13:35.898Z,9.95
2023-05-12T05:16:03.057Z,5.50
2023-05-12T05:18:30.281Z,6.07
2023-05-12T05:20:58.829Z,6.25
2023-05-12T05:23:26.799Z,8.35
2023-05-12T05:25:53.929Z,12.80
2023-05-12T05:28:20.944Z,9.75
2023-05-12T05:30:48.025Z,9.10
2023-05-12T05:33:15.076Z,12.15
2023-05-12T05:35:42.571Z,8.55
2023-05-12T05:38:09.652Z,16.25
2023-05-12T05:40:49.321Z,5.72
2023-05-12T05:43:19.765Z,7.97
2023-05-12T05:45:47.259Z,4.35
2023-05-12T05:48:14.213Z,8.05
2023-05-12T05:50:41.453Z,11.25
2023-05-12T05:53:08.437Z,9.38
2023-05-12T05:55:35.521Z,11.00
2023-05-12T05:58:02.514Z,7.93
2023-05-12T06:00:29.513Z,8.38
2023-05-12T06:02:56.705Z,11.07
2023-05-12T06:05:23.841Z,8.40
2023-05-12T06:07:50.803Z,6.32
2023-05-12T06:10:18.027Z,6.60
2023-05-12T06:12:45.192Z,8.43
2023-05-12T06:15:12.705Z,9.38
2023-05-12T06:17:39.856Z,7.00
2023-05-12T06:20:08.193Z,9.48
2023-05-12T06:22:35.314Z,9.77
2023-05-12T06:25:02.689Z,5.97
2023-05-12T06:27:30.014Z,10.27
2023-05-12T06:29:56.986Z,5.90
2023-05-12T06:32:23.977Z,6.13
2023-05-12T06:34:51.062Z,6.88
2023-05-12T06:37:18.218Z,4.72
2023-05-12T06:39:45.227Z,5.40
2023-05-12T06:42:12.268Z,8.10
2023-05-12T06:44:41.203Z,4.57
2023-05-12T06:47:09.283Z,10.68
2023-05-12T06:49:38.046Z,5.63
2023-05-12T06:52:07.974Z,5.20
2023-05-12T06:54:35.017Z,6.18
2023-05-12T06:57:01.986Z,4.28
2023-05-12T06:59:29.048Z,6.05
2023-05-12T07:01:56.098Z,7.40
2023-05-12T07:04:23.448Z,5.38
2023-05-12T07:06:52.216Z,10.10
2023-05-12T07:09:19.227Z,6.55
2023-05-12T07:11:46.890Z,6.95
2023-05-12T07:14:13.841Z,5.55
2023-05-12T07:16:40.877Z,12.50
2023-05-12T07:19:09.094Z,6.30
2023-05-12T07:21:37.227Z,6.95
2023-05-12T07:24:06.124Z,8.80
2023-05-12T07:26:33.498Z,5.53
2023-05-12T07:29:01.088Z,7.03
2023-05-12T07:31:28.730Z,6.72
2023-05-12T07:33:56.287Z,9.25
2023-05-12T07:36:23.468Z,4.88
2023-05-12T07:38:50.462Z,6.38
2023-05-12T07:41:18.110Z,6.68
2023-05-12T07:43:45.843Z,9.75
2023-05-12T07:46:12.919Z,10.27
2023-05-12T07:48:40.658Z,3.97
2023-05-12T07:51:08.934Z,7.38
2023-05-12T07:53:36.100Z,5.10
2023-05-12T07:56:03.293Z,12.00
2023-05-12T07:58:30.334Z,9.43
2023-05-12T08:01:00.190Z,4.72
2023-05-12T08:03:27.597Z,7.18
2023-05-12T08:05:54.709Z,5.28
2023-05-12T08:08:21.795Z,3.08
2023-05-12T08:10:48.775Z,4.32
2023-05-12T08:13:15.823Z,4.53
2023-05-12T08:15:42.960Z,2.30
2023-05-12T08:18:10.105Z,4.78
2023-05-12T08:20:37.247Z,6.07
2023-05-12T08:23:04.266Z,6.70
2023-05-12T08:25:31.421Z,9.07
2023-05-12T08:27:59.842Z,5.82
2023-05-12T08:30:27.557Z,7.68
2023-05-12T08:32:56.658Z,5.00
2023-05-12T08:35:26.557Z,6.07
2023-05-12T08:37:53.654Z,7.22
2023-05-12T08:40:25.066Z,11.75
2023-05-12T08:43:12.345Z,8.57
2023-05-12T08:45:41.361Z,5.60
2023-05-12T08:48:11.402Z,4.90
2023-05-12T08:50:41.227Z,4.28
2023-05-12T08:53:12.301Z,6.65
2023-05-12T08:55:46.065Z,3.45
2023-05-12T08:58:21.498Z,6.85
2023-05-12T09:00:54.856Z,9.07
2023-05-12T09:03:23.409Z,4.55
2023-05-12T09:05:50.599Z,8.50
2023-05-12T09:08:18.194Z,4.95
2023-05-12T09:10:45.998Z,2.92
2023-05-12T09:13:37.571Z,6.38
2023-05-12T09:16:07.821Z,3.08
2023-05-12T09:18:58.715Z,10.40
2023-05-12T09:21:27.011Z,6.00
2023-05-12T09:23:57.330Z,5.00
2023-05-12T09:26:26.450Z,4.45
2023-05-12T09:29:06.651Z,5.90
2023-05-12T09:31:34.078Z,4.25
2023-05-12T09:34:02.393Z,6.65
2023-05-12T09:36:29.443Z,9.40
2023-05-12T09:39:07.354Z,4.03
2023-05-12T09:41:38.645Z,7.95
2023-05-12T09:44:06.813Z,6.50
2023-05-12T09:46:34.264Z,5.13
2023-05-12T09:49:03.729Z,7.65
2023-05-12T09:51:31.231Z,7.25
2023-05-12T09:53:59.104Z,4.60
2023-05-12T09:56:29.719Z,6.95
2023-05-12T09:58:57.834Z,3.65
2023-05-12T10:01:26.816Z,4.00
2023-05-12T10:03:59.158Z,6.00
2023-05-12T10:06:42.864Z,7.28
2023-05-12T10:09:25.887Z,8.88
2023-05-12T10:11:54.172Z,6.03
2023-05-12T10:14:23.529Z,6.25
2023-05-12T10:16:52.050Z,4.75
2023-05-12T10:19:20.222Z,3.92
2023-05-12T10:21:47.783Z,3.83
2023-05-12T10:24:18.185Z,5.63
2023-05-12T10:26:45.529Z,8.23
2023-05-12T10:29:14.050Z,4.18
2023-05-12T10:31:42.533Z,13.98
2023-05-12T10:34:21.599Z,3.40
2023-05-12T10:36:51.340Z,3.60
2023-05-12T10:39:19.513Z,3.22
2023-05-12T10:41:46.585Z,7.20
2023-05-12T10:44:13.709Z,6.25
2023-05-12T10:46:42.003Z,2.88
2023-05-12T10:49:12.914Z,5.40
2023-05-12T10:51:51.133Z,10.35
2023-05-12T10:54:25.388Z,8.05
2023-05-12T10:56:57.521Z,3.05
2023-05-12T10:59:27.196Z,2.50
2023-05-12T11:02:20.302Z,2.70
2023-05-12T11:04:55.855Z,3.70
2023-05-12T11:07:30.605Z,7.68
2023-05-12T11:10:01.654Z,4.88
2023-05-12T11:12:33.174Z,7.05
2023-05-12T11:15:03.402Z,3.10
2023-05-12T11:17:30.732Z,3.88
2023-05-12T11:19:58.234Z,3.42
2023-05-12T11:22:25.420Z,4.82
2023-05-12T11:24:53.207Z,4.70
2023-05-12T11:27:23.101Z,5.45
2023-05-12T11:30:02.847Z,8.30
2023-05-12T11:32:30.417Z,3.85
2023-05-12T11:35:11.930Z,8.38
2023-05-12T11:37:41.052Z,2.70
2023-05-12T11:40:20.982Z,2.90
2023-05-12T11:42:55.893Z,4.18
2023-05-12T11:45:30.623Z,8.02
2023-05-12T11:48:14.848Z,4.45
2023-05-12T11:50:46.869Z,9.77
2023-05-12T11:53:17.550Z,8.38
2023-05-12T11:55:56.391Z,6.55
2023-05-12T11:58:30.697Z,10.35
2023-05-12T12:01:10.030Z,17.08
2023-05-12T12:03:50.039Z,11.57
2023-05-12T12:06:19.525Z,11.82
2023-05-12T12:09:02.710Z,4.95
2023-05-12T12:11:30.845Z,5.00
2023-05-12T12:13:58.217Z,6.28
2023-05-12T12:16:27.359Z,10.55
2023-05-12T12:18:54.929Z,8.23
2023-05-12T12:21:26.916Z,5.57
2023-05-12T12:23:53.888Z,3.50
2023-05-12T12:26:21.657Z,6.40
2023-05-12T12:28:49.249Z,6.70
2023-05-12T12:31:16.750Z,2.70
2023-05-12T12:33:43.956Z,3.60
2023-05-12T12:36:10.999Z,4.65
2023-05-12T12:38:38.101Z,3.55
2023-05-12T12:41:06.428Z,1.95
2023-05-12T12:43:33.686Z,6.00
2023-05-12T12:46:00.916Z,4.20
2023-05-12T12:48:28.911Z,8.23
2023-05-12T12:50:56.409Z,8.30
2023-05-12T12:53:23.714Z,7.32
2023-05-12T12:55:51.219Z,2.30
2023-05-12T12:58:18.203Z,3.17
2023-05-12T13:00:45.544Z,6.25
2023-05-12T13:03:12.731Z,7.97
2023-05-12T13:05:39.763Z,6.55
2023-05-12T13:08:07.317Z,8.15
2023-05-12T13:10:34.924Z,5.90
2023-05-12T13:13:02.117Z,3.50
2023-05-12T13:15:29.571Z,5.68
2023-05-12T13:17:56.707Z,3.75
2023-05-12T13:20:23.845Z,9.07
2023-05-12T13:22:50.817Z,5.85
2023-05-12T13:25:18.264Z,4.10
2023-05-12T13:27:45.275Z,6.05
2023-05-12T13:30:13.940Z,3.92
2023-05-12T13:32:41.618Z,6.95
2023-05-12T13:35:09.379Z,10.50
2023-05-12T13:37:37.540Z,9.55
2023-05-12T13:40:05.060Z,6.30
2023-05-12T13:42:32.524Z,6.72
2023-05-12T13:44:59.564Z,6.22
2023-05-12T13:47:27.021Z,3.22
2023-05-12T13:49:54.194Z,4.93
2023-05-12T13:52:21.172Z,4.40
2023-05-12T13:54:48.257Z,10.27
2023-05-12T13:57:15.241Z,7.88
2023-05-12T13:59:42.208Z,3.42
2023-05-12T14:02:11.947Z,6.00
2023-05-12T14:04:38.948Z,7.50
2023-05-12T14:07:08.314Z,6.82
2023-05-12T14:09:35.667Z,2.78
2023-05-12T14:12:04.437Z,4.70
2023-05-12T14:14:31.616Z,4.90
2023-05-12T14:16:58.646Z,3.95
2023-05-12T14:19:25.745Z,10.27
2023-05-12T14:21:52.811Z,6.22
2023-05-12T14:24:20.003Z,3.97
2023-05-12T14:26:46.973Z,6.47
2023-05-12T14:29:14.000Z,6.63
2023-05-12T14:31:41.126Z,2.85
2023-05-12T14:34:09.271Z,4.20
2023-05-12T14:36:36.434Z,4.18
2023-05-12T14:39:03.802Z,3.83
2023-05-12T14:41:30.979Z,9.02
2023-05-12T14:43:58.660Z,5.90
2023-05-12T14:46:25.903Z,5.20
2023-05-12T14:48:53.078Z,5.93
2023-05-12T14:51:20.086Z,6.13
2023-05-12T14:53:47.132Z,3.63
2023-05-12T14:56:14.203Z,2.45
2023-05-12T14:58:41.190Z,4.38
2023-05-12T15:01:09.467Z,9.40
2023-05-12T15:03:36.919Z,5.45
2023-05-12T15:06:07.634Z,4.38
2023-05-12T15:08:35.332Z,2.95
2023-05-12T15:11:02.320Z,5.88
2023-05-12T15:13:29.415Z,4.57
2023-05-12T15:15:57.091Z,6.03
2023-05-12T15:18:24.516Z,4.20
2023-05-12T15:20:52.037Z,2.40
2023-05-12T15:23:19.060Z,5.10
2023-05-12T15:25:46.106Z,3.08
2023-05-12T15:28:13.141Z,4.53
2023-05-12T15:30:40.237Z,3.35
2023-05-12T15:33:07.380Z,4.80
2023-05-12T15:35:34.626Z,4.93
2023-05-12T15:38:01.640Z,7.50
2023-05-12T15:40:30.843Z,2.42
2023-05-12T15:42:58.056Z,5.40
2023-05-12T15:45:25.129Z,4.15
2023-05-12T15:47:52.213Z,4.47
2023-05-12T15:50:22.691Z,6.28
2023-05-12T15:52:50.201Z,3.25
2023-05-12T15:55:17.573Z,3.85
2023-05-12T15:57:44.786Z,10.27
2023-05-12T16:00:12.842Z,4.40
2023-05-12T16:02:40.290Z,4.53
2023-05-12T16:05:07.927Z,3.90
2023-05-12T16:07:35.284Z,3.72
2023-05-12T16:10:03.432Z,2.80
2023-05-12T16:12:30.766Z,6.70
2023-05-12T16:14:57.820Z,5.40
2023-05-12T16:17:24.982Z,5.18
2023-05-12T16:19:53.652Z,10.40
2023-05-12T16:22:20.704Z,3.53
2023-05-12T16:24:48.003Z,3.83
2023-05-12T16:27:15.320Z,4.70
2023-05-12T16:29:45.980Z,6.78
2023-05-12T16:32:13.119Z,4.95
2023-05-12T16:34:40.445Z,4.45
2023-05-12T16:37:07.630Z,4.97
2023-05-12T16:39:35.976Z,4.07
2023-05-12T16:42:03.557Z,3.80
2023-05-12T16:44:30.618Z,2.92
2023-05-12T16:46:57.664Z,4.20
2023-05-12T16:49:24.677Z,6.03
2023-05-12T16:51:51.680Z,4.28
2023-05-12T16:54:18.771Z,3.08
2023-05-12T16:56:45.976Z,6.45
2023-05-12T16:59:13.011Z,5.20
2023-05-12T17:01:40.115Z,4.13
2023-05-12T17:04:08.018Z,5.13
2023-05-12T17:06:35.101Z,9.50
2023-05-12T17:09:02.130Z,7.43
2023-05-12T17:11:29.234Z,4.13
2023-05-12T17:13:56.240Z,3.90
2023-05-12T17:16:23.283Z,6.88
2023-05-12T17:21:20.333Z,8.43
2023-05-12T17:23:47.672Z,8.00
2023-05-12T17:26:14.801Z,3.08
2023-05-12T17:28:42.381Z,6.30
2023-05-12T17:31:09.419Z,6.20
2023-05-12T17:33:37.011Z,3.22
2023-05-12T17:36:12.259Z,4.20
2023-05-12T17:38:41.273Z,2.63
2023-05-12T17:41:08.449Z,4.10
2023-05-12T17:43:35.558Z,2.92
2023-05-12T17:46:04.119Z,4.13
2023-05-12T17:48:33.370Z,3.45
2023-05-12T17:51:02.261Z,5.22
2023-05-12T17:53:31.205Z,4.18
2023-05-12T17:55:59.260Z,4.00
2023-05-12T17:58:26.523Z,3.22
2023-05-12T18:00:53.751Z,6.70
2023-05-12T18:03:24.028Z,5.53
2023-05-12T18:05:53.307Z,8.60
2023-05-12T18:08:20.681Z,7.20
2023-05-12T18:10:47.987Z,2.72
2023-05-12T18:13:15.582Z,2.85
2023-05-12T18:15:43.157Z,4.88
2023-05-12T18:18:10.807Z,7.88
2023-05-12T18:20:38.218Z,3.05
2023-05-12T18:23:05.342Z,11.63
2023-05-12T18:25:32.363Z,5.38
2023-05-12T18:27:59.368Z,8.95
2023-05-12T18:30:26.396Z,3.95
2023-05-12T18:32:53.699Z,10.82
2023-05-12T18:35:20.968Z,5.38
2023-05-12T18:37:48.188Z,5.18
2023-05-12T18:40:15.263Z,4.55
2023-05-12T18:42:42.681Z,11.15
2023-05-12T18:45:10.290Z,7.55
2023-05-12T18:47:37.529Z,5.35
2023-05-12T18:50:05.406Z,8.10
2023-05-12T18:52:32.459Z,5.90
2023-05-12T18:54:59.725Z,8.35
2023-05-12T18:57:26.836Z,5.15
2023-05-12T18:59:53.908Z,6.05
2023-05-12T19:02:20.905Z,6.68
2023-05-12T19:04:48.466Z,4.40
2023-05-12T19:07:15.843Z,4.05
2023-05-12T19:09:44.090Z,5.88
2023-05-12T19:12:11.849Z,5.65
2023-05-12T19:14:40.144Z,8.35
2023-05-12T19:17:07.770Z,4.38
2023-05-12T19:19:35.310Z,7.10
2023-05-12T19:22:04.151Z,5.63
2023-05-12T19:24:31.224Z,4.60
2023-05-12T19:26:58.219Z,6.97
2023-05-12T19:29:25.370Z,3.88
2023-05-12T19:31:53.240Z,9.27
2023-05-12T19:34:20.686Z,12.57
2023-05-12T19:36:47.963Z,6.13
2023-05-12T19:39:15.070Z,9.43
2023-05-12T19:41:42.106Z,10.82
2023-05-12T19:44:09.192Z,9.10
2023-05-12T19:46:36.672Z,6.93
2023-05-12T19:49:05.889Z,8.93
2023-05-12T19:51:33.199Z,10.57
2023-05-12T19:54:01.961Z,12.65
2023-05-12T19:56:30.346Z,19.17
2023-05-12T19:58:57.328Z,15.65
2023-05-12T20:01:24.708Z,12.88
2023-05-12T20:03:54.149Z,14.13
2023-05-12T20:06:22.474Z,11.13
2023-05-12T20:08:49.573Z,13.23
2023-05-12T20:11:16.582Z,15.00
2023-05-12T20:13:43.609Z,10.27
2023-05-12T20:16:10.736Z,11.60
2023-05-12T20:18:37.812Z,17.15
2023-05-12T20:21:04.940Z,11.70
2023-05-12T20:23:33.092Z,10.23
2023-05-12T20:26:00.275Z,10.80
2023-05-12T20:28:28.298Z,8.82
2023-05-12T20:30:55.360Z,11.48
2023-05-12T20:33:22.516Z,8.10
2023-05-12T20:35:49.540Z,14.60
2023-05-12T20:38:16.774Z,9.20
2023-05-12T20:40:43.780Z,15.88
2023-05-12T20:43:10.837Z,9.00
2023-05-12T20:45:37.938Z,12.88
2023-05-12T20:48:05.255Z,7.97
2023-05-12T20:50:32.274Z,10.98
2023-05-12T20:52:59.560Z,20.83
2023-05-12T20:55:26.557Z,14.10
2023-05-12T20:57:53.899Z,11.00
2023-05-12T21:00:21.658Z,9.55
2023-05-12T21:02:52.132Z,8.85
2023-05-12T21:05:19.661Z,9.35
2023-05-12T21:07:46.854Z,12.25
2023-05-12T21:10:13.806Z,14.80
2023-05-12T21:12:40.947Z,19.88
2023-05-12T21:15:10.522Z,10.57
2023-05-12T21:17:39.387Z,15.50
2023-05-12T21:20:10.157Z,9.88
2023-05-12T21:22:38.261Z,10.30
2023-05-12T21:25:06.190Z,13.25
2023-05-12T21:27:33.232Z,13.25
2023-05-12T21:30:00.296Z,17.23
2023-05-12T21:32:27.920Z,10.63
2023-05-12T21:34:55.466Z,11.80
2023-05-12T21:37:22.488Z,15.90
2023-05-12T21:39:49.446Z,9.73
2023-05-12T21:42:16.386Z,7.70
2023-05-12T21:44:43.436Z,11.80
2023-05-12T21:47:10.547Z,10.60
2023-05-12T21:49:37.517Z,13.95
2023-05-12T21:52:04.788Z,11.00
2023-05-12T21:54:34.871Z,13.65
2023-05-12T21:57:02.869Z,17.35
2023-05-12T21:59:30.645Z,14.95
2023-05-12T22:01:57.885Z,23.45
2023-05-12T22:04:24.962Z,19.88
2023-05-12T22:06:52.035Z,20.33
2023-05-12T22:09:20.377Z,27.10
2023-05-12T22:11:47.583Z,19.48
2023-05-12T22:14:14.676Z,18.63
2023-05-12T22:16:42.740Z,21.67
2023-05-12T22:19:10.373Z,22.60
2023-05-12T22:21:37.524Z,19.60
2023-05-12T22:24:05.076Z,22.73
2023-05-12T22:26:32.853Z,23.17
2023-05-12T22:28:59.844Z,25.70
2023-05-12T22:31:27.025Z,26.77
2023-05-12T22:33:54.065Z,26.27
2023-05-12T22:36:21.535Z,26.35
2023-05-12T22:38:48.686Z,16.80
2023-05-12T22:41:15.848Z,25.80
2023-05-12T22:43:42.872Z,18.98
2023-05-12T22:46:09.962Z,24.67
2023-05-12T22:48:39.500Z,21.27
2023-05-12T22:51:07.100Z,26.48
2023-05-12T22:53:36.605Z,29.55
2023-05-12T22:56:04.728Z,24.65
2023-05-12T22:58:31.728Z,20.02
2023-05-12T23:01:00.374Z,27.92
2023-05-12T23:03:27.525Z,19.20
2023-05-12T23:05:54.518Z,19.95
2023-05-12T23:08:21.644Z,27.23
2023-05-12T23:10:48.667Z,24.52
2023-05-12T23:13:15.795Z,25.13
2023-05-12T23:15:42.812Z,29.40
2023-05-12T23:18:09.863Z,17.30
2023-05-12T23:20:36.889Z,38.03
2023-05-12T23:23:03.908Z,34.95
2023-05-12T23:25:31.779Z,24.63
2023-05-12T23:27:58.808Z,21.92
2023-05-12T23:30:25.932Z,23.63
2023-05-12T23:32:53.071Z,20.63
2023-05-12T23:35:20.253Z,22.98
2023-05-12T23:37:47.572Z,19.58
2023-05-12T23:40:14.525Z,24.77
2023-05-12T23:42:41.661Z,17.40
2023-05-12T23:45:09.345Z,20.65
2023-05-12T23:47:36.435Z,23.00
2023-05-12T23:50:03.800Z,21.88
2023-05-12T23:52:30.934Z,21.63
2023-05-12T23:54:58.014Z,18.33
2023-05-12T23:57:25.034Z,19.83
2023-05-12T23:59:52.064Z,28.45
